Time;durP1;ratioP1;P1;durP2;ratioP2;P2;SDS_P1;SDS_P2;PMS_P1;PMS_P2;Temp;Humidity;BMP_temperature;BMP_pressure;BME280_temperature;BME280_humidity;BME280_pressure;Samples;Min_cycle;Max_cycle;Signal;HPM_P1;HPM_P2
2022/08/15 00:01:24;;;;;;;0.40;0.30;;;18.70;99.90;;;;;;5009882;28;20423;-72
2022/08/15 00:03:57;;;;;;;0.40;0.20;;;18.70;99.90;;;;;;5003544;28;20413;-71
2022/08/15 00:06:36;;;;;;;0.40;0.25;;;18.60;99.90;;;;;;5003394;28;20457;-72
2022/08/15 00:09:05;;;;;;;0.40;0.30;;;18.60;99.90;;;;;;5010724;28;20424;-72
2022/08/15 00:11:38;;;;;;;0.40;0.20;;;18.60;99.90;;;;;;5000384;28;20799;-72
2022/08/15 00:14:14;;;;;;;0.40;0.30;;;18.60;99.90;;;;;;5007968;28;20415;-72
2022/08/15 00:16:43;;;;;;;0.40;0.20;;;18.60;99.90;;;;;;5004230;28;20498;-71
2022/08/15 00:19:12;;;;;;;0.40;0.30;;;18.70;99.90;;;;;;4990399;28;20840;-72
2022/08/15 00:21:43;;;;;;;0.40;0.30;;;18.70;99.90;;;;;;4985463;28;20409;-72
2022/08/15 00:24:10;;;;;;;0.40;0.22;;;18.80;99.90;;;;;;5004521;28;20414;-72
2022/08/15 00:26:36;;;;;;;0.40;0.20;;;18.80;99.90;;;;;;5011416;28;20420;-70
2022/08/15 00:29:04;;;;;;;0.40;0.20;;;18.70;99.90;;;;;;5010794;28;20891;-71
2022/08/15 00:31:31;;;;;;;0.40;0.20;;;18.70;99.90;;;;;;4992305;28;20432;-72
2022/08/15 00:34:00;;;;;;;0.40;0.20;;;18.80;99.90;;;;;;5007525;28;20407;-72
2022/08/15 00:36:26;;;;;;;0.40;0.30;;;18.80;99.90;;;;;;5009365;28;20421;-71
2022/08/15 00:38:52;;;;;;;0.50;0.50;;;18.70;99.90;;;;;;5010505;28;20927;-71
2022/08/15 00:44:22;;;;;;;0.40;0.20;;;18.80;99.90;;;;;;5010400;28;20475;-71
2022/08/15 00:46:54;;;;;;;0.40;0.20;;;18.80;99.90;;;;;;5000344;28;20400;-72
2022/08/15 00:49:23;;;;;;;0.40;0.20;;;18.70;99.90;;;;;;4992625;28;21010;-71
2022/08/15 00:52:14;;;;;;;1.10;0.80;;;18.70;99.90;;;;;;5004270;28;20400;-71
2022/08/15 00:54:45;;;;;;;0.80;0.80;;;18.90;99.90;;;;;;5002426;28;20512;-71
2022/08/15 00:57:17;;;;;;;0.40;0.20;;;18.80;99.90;;;;;;5005154;28;20779;-71
2022/08/15 00:59:51;;;;;;;0.40;0.20;;;18.70;99.90;;;;;;5006517;28;21064;-71
2022/08/15 01:02:20;;;;;;;0.40;0.20;;;18.70;99.90;;;;;;5010169;28;20408;-72
2022/08/15 01:04:46;;;;;;;0.40;0.20;;;18.70;99.90;;;;;;5009147;28;20417;-71
2022/08/15 01:07:12;;;;;;;0.40;0.30;;;18.80;99.90;;;;;;5010534;28;20426;-71
2022/08/15 01:09:39;;;;;;;0.40;0.20;;;19.10;99.90;;;;;;4998050;28;20740;-72
2022/08/15 01:12:14;;;;;;;0.90;0.60;;;19.00;99.90;;;;;;5009047;28;20409;-72
2022/08/15 01:14:45;;;;;;;0.40;0.40;;;18.90;99.90;;;;;;5013808;28;20397;-72
2022/08/15 01:17:11;;;;;;;0.40;0.30;;;18.80;99.90;;;;;;5009988;28;20779;-71
2022/08/15 01:19:45;;;;;;;0.40;0.30;;;19.00;99.90;;;;;;5007650;28;20511;-72
2022/08/15 01:22:13;;;;;;;0.40;0.30;;;19.00;99.90;;;;;;5005560;28;20424;-72
2022/08/15 01:24:58;;;;;;;0.40;0.40;;;19.10;99.90;;;;;;5009033;28;20759;-71
2022/08/15 01:27:31;;;;;;;0.40;0.30;;;19.30;99.90;;;;;;5008585;28;20384;-72
2022/08/15 01:29:58;;;;;;;0.40;0.20;;;19.40;99.90;;;;;;5008243;28;20420;-71
2022/08/15 01:32:25;;;;;;;0.40;0.30;;;19.40;99.90;;;;;;5090020;22;20844;-72
2022/08/15 01:34:51;;;;;;;0.40;0.30;;;19.50;99.90;;;;;;5082552;28;20398;-74
2022/08/15 01:37:17;;;;;;;0.40;0.20;;;19.50;99.90;;;;;;5086695;28;20393;-74
2022/08/15 01:39:50;;;;;;;0.90;0.50;;;19.50;99.90;;;;;;5083725;28;20378;-74
2022/08/15 01:42:24;;;;;;;0.40;0.20;;;19.50;99.90;;;;;;5090219;28;20370;-74
2022/08/15 01:45:01;;;;;;;0.40;0.30;;;19.40;99.90;;;;;;5089595;28;20476;-74
2022/08/15 01:47:55;;;;;;;0.40;0.20;;;19.50;99.90;;;;;;5090158;28;20599;-74
2022/08/15 01:50:31;;;;;;;0.40;0.30;;;19.40;99.90;;;;;;5090662;28;20727;-74
2022/08/15 01:53:03;;;;;;;0.40;0.30;;;19.30;99.90;;;;;;5092381;28;20874;-74
2022/08/15 01:55:52;;;;;;;0.50;0.40;;;19.30;99.90;;;;;;5094572;28;20731;-74
2022/08/15 01:58:19;;;;;;;0.50;0.40;;;19.20;99.90;;;;;;5086073;28;20386;-74
2022/08/15 02:00:59;;;;;;;0.40;0.20;;;19.30;99.90;;;;;;5094301;28;20462;-74
2022/08/15 02:03:33;;;;;;;0.40;0.30;;;19.30;99.90;;;;;;5093966;28;20424;-75
2022/08/15 02:06:04;;;;;;;0.40;0.20;;;19.50;99.90;;;;;;5094157;28;20543;-74
2022/08/15 02:08:30;;;;;;;0.40;0.20;;;19.20;99.90;;;;;;5094369;28;20386;-74
2022/08/15 02:10:56;;;;;;;0.40;0.30;;;18.90;99.90;;;;;;5094091;28;20396;-74
2022/08/15 02:13:23;;;;;;;0.40;0.30;;;18.90;99.90;;;;;;5093942;28;20382;-74
2022/08/15 02:15:49;;;;;;;0.40;0.20;;;18.80;99.90;;;;;;5094400;28;20837;-74
2022/08/15 02:18:14;;;;;;;0.40;0.30;;;18.60;99.90;;;;;;5093902;28;20423;-74
2022/08/15 02:20:40;;;;;;;0.40;0.30;;;18.60;99.90;;;;;;5093879;28;20382;-74
2022/08/15 02:23:07;;;;;;;0.40;0.30;;;18.60;99.90;;;;;;5093424;28;20393;-74
2022/08/15 02:25:32;;;;;;;0.40;0.20;;;18.60;99.90;;;;;;5093584;28;20398;-74
2022/08/15 02:27:58;;;;;;;0.60;0.50;;;18.60;99.90;;;;;;5092413;28;20755;-74
2022/08/15 02:30:26;;;;;;;1.00;1.00;;;18.50;99.90;;;;;;5093608;28;20370;-74
2022/08/15 02:32:52;;;;;;;0.50;0.50;;;18.30;99.90;;;;;;5079342;28;20733;-74
2022/08/15 02:35:17;;;;;;;0.50;0.50;;;18.30;99.90;;;;;;5073252;28;20387;-74
2022/08/15 02:37:44;;;;;;;0.40;0.20;;;18.30;99.90;;;;;;5071817;28;20387;-74
2022/08/15 02:40:14;;;;;;;0.40;0.20;;;18.40;99.90;;;;;;5073202;28;20402;-74
2022/08/15 02:42:42;;;;;;;0.40;0.30;;;18.40;99.90;;;;;;5072795;28;20387;-75
2022/08/15 02:45:10;;;;;;;0.40;0.30;;;18.30;99.90;;;;;;5073006;28;20464;-74
2022/08/15 02:47:37;;;;;;;0.40;0.30;;;18.30;99.90;;;;;;5072932;28;20759;-74
2022/08/15 02:50:05;;;;;;;0.40;0.20;;;18.20;99.90;;;;;;5081158;28;20905;-73
2022/08/15 02:52:31;;;;;;;0.40;0.20;;;18.40;99.90;;;;;;5052650;28;20389;-74
2022/08/15 02:54:59;;;;;;;0.40;0.30;;;18.60;99.90;;;;;;5071950;28;20756;-74
2022/08/15 02:57:25;;;;;;;0.40;0.20;;;18.70;99.90;;;;;;5083262;28;20390;-74
2022/08/15 02:59:50;;;;;;;0.40;0.40;;;18.80;99.90;;;;;;5092872;28;20374;-74
2022/08/15 03:02:16;;;;;;;0.40;0.30;;;18.80;99.90;;;;;;5093026;28;20378;-74
2022/08/15 03:04:44;;;;;;;0.40;0.30;;;18.90;99.90;;;;;;5088548;28;20451;-74
2022/08/15 03:07:09;;;;;;;0.60;0.60;;;19.00;99.90;;;;;;5079185;28;20489;-74
2022/08/15 03:09:35;;;;;;;0.40;0.30;;;19.10;99.90;;;;;;5073961;28;20494;-74
2022/08/15 03:12:01;;;;;;;0.40;0.20;;;19.20;99.90;;;;;;5083737;28;20413;-74
2022/08/15 03:14:26;;;;;;;0.40;0.30;;;19.10;99.90;;;;;;5064111;28;20402;-74
2022/08/15 03:16:52;;;;;;;0.40;0.20;;;19.20;99.90;;;;;;5080258;28;20955;-75
2022/08/15 03:19:21;;;;;;;0.40;0.30;;;19.10;99.90;;;;;;5079272;28;20923;-74
2022/08/15 03:21:48;;;;;;;0.40;0.40;;;19.00;99.90;;;;;;5070800;28;20425;-74
2022/08/15 03:24:15;;;;;;;0.40;0.30;;;19.20;99.90;;;;;;5068677;28;20404;-74
2022/08/15 03:26:44;;;;;;;0.40;0.30;;;19.30;99.90;;;;;;5075049;28;20892;-74
2022/08/15 03:29:09;;;;;;;0.40;0.20;;;19.20;99.90;;;;;;5066966;28;20966;-74
2022/08/15 03:31:35;;;;;;;1.00;0.90;;;19.30;99.90;;;;;;5064078;28;20407;-74
2022/08/15 03:34:01;;;;;;;0.40;0.30;;;19.40;99.90;;;;;;5063368;28;20447;-74
2022/08/15 03:36:26;;;;;;;0.40;0.30;;;19.40;99.90;;;;;;5081707;28;20459;-74
2022/08/15 03:38:52;;;;;;;0.40;0.20;;;19.30;99.90;;;;;;5082563;28;20499;-73
2022/08/15 03:41:18;;;;;;;0.40;0.20;;;19.40;99.90;;;;;;5072710;28;20415;-73
2022/08/15 03:43:46;;;;;;;0.40;0.30;;;19.40;99.90;;;;;;5076407;28;20482;-74
2022/08/15 03:46:16;;;;;;;0.40;0.20;;;19.50;99.90;;;;;;5071525;28;20438;-73
2022/08/15 03:48:48;;;;;;;0.40;0.30;;;19.40;99.90;;;;;;5080625;28;20552;-74
2022/08/15 03:51:16;;;;;;;0.40;0.30;;;19.50;99.90;;;;;;5072078;28;20388;-74
2022/08/15 03:53:54;;;;;;;0.40;0.20;;;19.50;99.90;;;;;;5067468;28;20398;-74
2022/08/15 03:56:26;;;;;;;0.80;0.80;;;19.50;99.90;;;;;;5077295;28;20401;-75
2022/08/15 03:58:53;;;;;;;0.60;0.50;;;19.60;99.90;;;;;;5079412;28;20435;-74
2022/08/15 04:01:22;;;;;;;0.40;0.20;;;19.60;99.90;;;;;;5076390;28;20879;-73
2022/08/15 04:03:50;;;;;;;0.40;0.30;;;19.60;99.90;;;;;;5076541;28;20402;-74
2022/08/15 04:06:19;;;;;;;0.40;0.20;;;19.70;99.90;;;;;;5063232;28;20416;-74
2022/08/15 04:08:47;;;;;;;0.40;0.20;;;19.70;99.90;;;;;;5079812;28;20745;-74
2022/08/15 04:11:14;;;;;;;0.40;0.30;;;19.70;99.90;;;;;;5080909;28;20484;-74
2022/08/15 04:13:40;;;;;;;0.40;0.20;;;19.80;99.90;;;;;;5073564;28;20410;-74
2022/08/15 04:16:07;;;;;;;0.40;0.20;;;19.70;99.90;;;;;;5069576;28;20469;-75
2022/08/15 04:18:34;;;;;;;0.40;0.30;;;19.90;99.90;;;;;;5079869;28;20395;-75
2022/08/15 04:21:04;;;;;;;0.40;0.20;;;19.90;99.90;;;;;;5077065;28;20916;-75
2022/08/15 04:23:30;;;;;;;0.40;0.20;;;19.80;99.90;;;;;;5073256;28;20921;-75
2022/08/15 04:25:56;;;;;;;0.40;0.20;;;19.80;99.90;;;;;;5075187;28;20413;-74
2022/08/15 04:28:24;;;;;;;0.40;0.20;;;19.80;99.90;;;;;;5077406;28;20978;-74
2022/08/15 04:30:50;;;;;;;0.40;0.30;;;19.90;99.90;;;;;;5081185;28;20482;-74
2022/08/15 04:33:21;;;;;;;0.40;0.20;;;19.90;99.90;;;;;;5071884;28;20487;-75
2022/08/15 04:35:51;;;;;;;0.40;0.20;;;19.90;99.90;;;;;;5079750;28;20923;-75
2022/08/15 04:38:18;;;;;;;0.40;0.30;;;20.00;99.90;;;;;;5088425;28;20397;-75
2022/08/15 04:40:45;;;;;;;0.40;0.20;;;19.90;99.90;;;;;;5066102;28;20774;-75
2022/08/15 04:43:11;;;;;;;0.40;0.30;;;19.80;99.90;;;;;;5068331;28;20436;-75
2022/08/15 04:45:40;;;;;;;0.40;0.30;;;19.50;99.90;;;;;;5077709;28;21387;-74
2022/08/15 04:48:06;;;;;;;0.40;0.20;;;19.30;99.90;;;;;;5071789;28;20439;-75
2022/08/15 04:50:35;;;;;;;0.40;0.20;;;19.30;99.90;;;;;;5063681;28;20406;-75
2022/08/15 04:53:01;;;;;;;0.40;0.20;;;19.20;99.90;;;;;;5069383;28;20400;-75
2022/08/15 04:55:28;;;;;;;0.40;0.20;;;18.90;99.90;;;;;;5071755;28;20455;-74
2022/08/15 04:57:55;;;;;;;0.40;0.30;;;18.80;99.90;;;;;;5075019;28;20461;-75
2022/08/15 05:00:25;;;;;;;0.40;0.30;;;18.70;99.90;;;;;;5074845;28;20409;-75
2022/08/15 05:02:58;;;;;;;0.40;0.20;;;18.70;99.90;;;;;;5071100;28;20813;-75
2022/08/15 05:05:24;;;;;;;0.40;0.30;;;18.60;99.90;;;;;;5072954;28;20416;-75
2022/08/15 05:07:50;;;;;;;0.40;0.30;;;18.50;99.90;;;;;;5077804;28;20398;-75
2022/08/15 05:10:16;;;;;;;0.40;0.30;;;18.50;99.90;;;;;;5065771;28;20467;-75
2022/08/15 05:12:42;;;;;;;0.98;0.88;;;18.40;99.90;;;;;;5067397;28;20405;-75
2022/08/15 05:15:13;;;;;;;0.40;0.20;;;18.40;99.90;;;;;;5078691;28;20409;-75
2022/08/15 05:17:38;;;;;;;0.40;0.20;;;18.30;99.90;;;;;;5079431;28;20384;-75
2022/08/15 05:20:06;;;;;;;0.40;0.28;;;18.30;99.90;;;;;;5069254;28;20477;-75
2022/08/15 05:22:32;;;;;;;0.40;0.20;;;18.40;99.90;;;;;;5064608;28;20405;-75
2022/08/15 05:24:58;;;;;;;0.40;0.27;;;18.40;99.90;;;;;;5078550;28;20746;-75
2022/08/15 05:27:23;;;;;;;0.40;0.20;;;18.30;99.90;;;;;;5073938;28;20404;-75
2022/08/15 05:29:51;;;;;;;0.40;0.30;;;18.30;99.90;;;;;;5072336;28;20669;-76
2022/08/15 05:32:20;;;;;;;0.40;0.32;;;18.30;99.90;;;;;;5068527;28;20416;-75
2022/08/15 05:34:47;;;;;;;0.40;0.30;;;18.40;99.90;;;;;;5078318;28;20430;-75
2022/08/15 05:37:13;;;;;;;0.40;0.30;;;18.30;99.90;;;;;;5058379;28;20403;-75
2022/08/15 05:39:40;;;;;;;0.40;0.30;;;18.50;99.90;;;;;;5051486;28;20894;-74
2022/08/15 05:42:25;;;;;;;0.50;0.50;;;18.50;99.90;;;;;;5058873;28;20414;-74
2022/08/15 05:45:00;;;;;;;0.40;0.20;;;18.50;99.90;;;;;;5060488;28;20463;-74
2022/08/15 05:47:51;;;;;;;0.40;0.20;;;18.40;99.90;;;;;;5064085;28;20401;-74
2022/08/15 05:50:30;;;;;;;0.40;0.30;;;18.50;99.90;;;;;;5058697;28;20390;-74
2022/08/15 05:53:10;;;;;;;0.40;0.30;;;18.50;99.90;;;;;;5061495;28;20393;-75
2022/08/15 05:56:03;;;;;;;0.40;0.20;;;18.60;99.90;;;;;;5057737;28;20411;-75
2022/08/15 05:59:04;;;;;;;0.40;0.20;;;18.40;99.90;;;;;;5063636;28;20387;-74
2022/08/15 06:01:34;;;;;;;0.40;0.30;;;18.30;99.90;;;;;;4998746;28;20463;-75
2022/08/15 06:04:13;;;;;;;0.40;0.20;;;18.40;99.90;;;;;;5048461;28;20850;-75
2022/08/15 06:06:42;;;;;;;0.40;0.20;;;18.40;99.90;;;;;;5059104;28;20486;-74
2022/08/15 06:09:38;;;;;;;0.40;0.30;;;18.50;99.90;;;;;;5058166;28;20429;-75
2022/08/15 06:12:09;;;;;;;0.40;0.30;;;18.50;99.90;;;;;;5063760;28;20850;-75
2022/08/15 06:14:39;;;;;;;0.40;0.20;;;18.60;99.90;;;;;;5057428;28;20440;-74
2022/08/15 06:17:19;;;;;;;0.40;0.30;;;18.70;99.90;;;;;;5073863;28;20411;-74
2022/08/15 06:19:48;;;;;;;0.40;0.30;;;18.80;99.90;;;;;;5070621;28;20409;-74
2022/08/15 06:22:33;;;;;;;2.80;1.10;;;18.90;99.90;;;;;;5062536;28;20429;-75
2022/08/15 06:24:58;;;;;;;0.40;0.40;;;19.00;99.90;;;;;;5059940;28;21701;-75
2022/08/15 06:27:32;;;;;;;0.40;0.30;;;19.00;99.90;;;;;;5063484;28;20395;-74
2022/08/15 06:30:10;;;;;;;0.40;0.20;;;19.00;99.90;;;;;;5073970;28;20374;-74
2022/08/15 06:32:48;;;;;;;0.70;0.70;;;19.20;99.90;;;;;;5065478;28;20396;-75
2022/08/15 06:35:38;;;;;;;0.40;0.30;;;19.20;99.90;;;;;;5055294;28;20761;-75
2022/08/15 06:38:07;;;;;;;0.40;0.20;;;19.30;99.90;;;;;;5057578;28;20444;-75
2022/08/15 06:40:55;;;;;;;0.40;0.20;;;19.30;99.90;;;;;;5062084;28;20419;-76
2022/08/15 06:43:21;;;;;;;0.40;0.30;;;19.30;99.90;;;;;;5060928;28;20384;-75
2022/08/15 06:45:49;;;;;;;0.40;0.30;;;19.50;99.90;;;;;;5059122;28;20405;-76
2022/08/15 06:48:30;;;;;;;0.47;0.38;;;19.50;99.90;;;;;;5059841;28;20872;-76
2022/08/15 06:50:59;;;;;;;0.40;0.30;;;19.60;99.90;;;;;;5060408;28;20449;-76
2022/08/15 06:53:37;;;;;;;0.40;0.20;;;19.70;99.90;;;;;;5059515;28;20440;-75
2022/08/15 06:56:18;;;;;;;0.40;0.20;;;19.80;99.90;;;;;;5064118;28;20901;-75
2022/08/15 06:59:00;;;;;;;0.40;0.30;;;19.80;99.90;;;;;;5064868;28;20401;-76
2022/08/15 07:02:03;;;;;;;0.40;0.30;;;19.90;99.90;;;;;;5060203;28;20926;-76
2022/08/15 07:04:50;;;;;;;0.90;0.90;;;20.00;99.90;;;;;;5059723;28;20459;-75
2022/08/15 07:07:52;;;;;;;0.40;0.20;;;20.00;99.90;;;;;;5061092;28;20403;-75
2022/08/15 07:10:27;;;;;;;0.40;0.20;;;20.20;99.90;;;;;;5069366;28;20385;-75
2022/08/15 07:13:04;;;;;;;0.40;0.30;;;20.60;99.90;;;;;;5066490;28;21111;-75
2022/08/15 07:15:53;;;;;;;0.40;0.30;;;20.80;99.90;;;;;;5062061;28;20407;-75
2022/08/15 07:18:22;;;;;;;0.40;0.30;;;20.90;99.90;;;;;;5065727;28;20800;-75
2022/08/15 07:20:47;;;;;;;0.40;0.27;;;21.10;99.90;;;;;;5063843;28;20405;-75
2022/08/15 07:23:21;;;;;;;0.40;0.30;;;21.20;99.90;;;;;;5068788;28;20436;-75
2022/08/15 07:25:50;;;;;;;0.40;0.20;;;21.20;99.90;;;;;;5061158;28;20422;-74
2022/08/15 07:28:19;;;;;;;0.40;0.30;;;21.30;99.90;;;;;;5074777;28;20925;-74
2022/08/15 07:31:00;;;;;;;0.40;0.30;;;21.40;99.90;;;;;;5078548;28;20439;-74
2022/08/15 07:33:30;;;;;;;0.40;0.30;;;21.50;99.90;;;;;;5080324;22;20447;-71
2022/08/15 07:36:06;;;;;;;0.90;0.80;;;21.50;99.90;;;;;;5069335;28;20384;-71
2022/08/15 07:38:32;;;;;;;0.40;0.20;;;21.50;99.90;;;;;;5052674;28;20377;-72
2022/08/15 07:41:15;;;;;;;0.40;0.30;;;21.60;99.90;;;;;;5054973;28;20455;-70
2022/08/15 07:43:41;;;;;;;0.40;0.30;;;21.60;99.90;;;;;;5071940;28;20375;-70
2022/08/15 07:46:24;;;;;;;0.40;0.30;;;21.70;99.90;;;;;;5072135;28;20410;-70
2022/08/15 07:49:07;;;;;;;0.40;0.30;;;21.90;99.90;;;;;;5072105;28;20414;-71
2022/08/15 07:51:46;;;;;;;0.40;0.30;;;22.10;99.90;;;;;;5072378;28;20418;-70
2022/08/15 07:54:49;;;;;;;0.50;0.40;;;22.10;99.90;;;;;;5055875;28;20834;-70
2022/08/15 07:57:33;;;;;;;0.70;0.40;;;22.10;99.90;;;;;;5041716;28;20473;-70
2022/08/15 08:00:25;;;;;;;0.40;0.30;;;22.10;99.90;;;;;;5047578;28;20378;-70
2022/08/15 08:03:24;;;;;;;0.40;0.30;;;22.20;99.90;;;;;;5045957;28;20466;-72
2022/08/15 08:06:00;;;;;;;0.40;0.30;;;22.40;99.90;;;;;;5050749;28;20929;-70
2022/08/15 08:08:54;;;;;;;0.40;0.20;;;22.30;99.90;;;;;;5051483;28;20906;-69
2022/08/15 08:11:38;;;;;;;0.40;0.20;;;22.40;99.90;;;;;;5042884;28;20428;-70
2022/08/15 08:14:21;;;;;;;0.40;0.20;;;22.40;99.90;;;;;;5050802;28;20497;-69
2022/08/15 08:16:54;;;;;;;0.68;0.28;;;22.60;99.90;;;;;;5050180;28;20851;-70
2022/08/15 08:19:33;;;;;;;0.40;0.20;;;22.50;99.90;;;;;;5048254;28;20391;-70
2022/08/15 08:22:33;;;;;;;0.40;0.30;;;22.50;99.90;;;;;;5051143;28;20386;-70
2022/08/15 08:25:13;;;;;;;0.40;0.30;;;22.30;99.90;;;;;;5046883;28;20806;-71
2022/08/15 08:27:45;;;;;;;0.40;0.30;;;22.30;99.90;;;;;;5044201;28;20834;-71
2022/08/15 08:30:16;;;;;;;0.60;0.60;;;22.50;99.90;;;;;;5051426;28;20393;-70
2022/08/15 08:33:09;;;;;;;0.50;0.40;;;22.60;99.90;;;;;;5034051;28;20420;-70
2022/08/15 08:36:21;;;;;;;0.40;0.30;;;22.70;99.90;;;;;;5040483;28;20407;-69
2022/08/15 08:39:12;;;;;;;0.40;0.30;;;22.70;99.90;;;;;;5026121;28;20418;-69
2022/08/15 08:41:50;;;;;;;0.40;0.30;;;22.60;99.90;;;;;;5041882;28;20406;-69
2022/08/15 08:44:38;;;;;;;0.40;0.30;;;22.70;99.90;;;;;;5036178;28;20413;-69
2022/08/15 08:47:41;;;;;;;0.40;0.30;;;22.90;99.90;;;;;;5044621;28;20859;-69
2022/08/15 08:50:26;;;;;;;0.40;0.20;;;22.80;99.90;;;;;;5038467;28;21268;-69
2022/08/15 08:53:01;;;;;;;0.40;0.30;;;22.80;99.90;;;;;;5044844;28;20449;-69
2022/08/15 08:55:51;;;;;;;1.20;0.70;;;22.90;99.90;;;;;;5042579;28;20828;-69
2022/08/15 08:58:36;;;;;;;0.60;0.60;;;22.90;99.90;;;;;;5048793;28;20408;-70
2022/08/15 09:01:05;;;;;;;0.40;0.30;;;23.00;99.90;;;;;;5037501;28;20397;-70
2022/08/15 09:03:42;;;;;;;0.40;0.30;;;23.10;99.90;;;;;;5042760;28;20403;-70
2022/08/15 09:06:12;;;;;;;0.40;0.30;;;23.40;99.90;;;;;;5048460;28;20451;-70
2022/08/15 09:08:51;;;;;;;0.40;0.30;;;23.30;99.90;;;;;;5048944;28;20406;-71
2022/08/15 09:11:19;;;;;;;0.40;0.30;;;23.40;99.90;;;;;;5045793;28;20445;-70
2022/08/15 09:13:46;;;;;;;0.40;0.30;;;23.50;99.90;;;;;;5044412;28;20446;-70
2022/08/15 09:16:23;;;;;;;0.40;0.20;;;23.50;99.90;;;;;;5054296;28;20412;-69
2022/08/15 09:18:52;;;;;;;0.40;0.20;;;23.50;99.90;;;;;;5045712;28;20405;-69
2022/08/15 09:21:18;;;;;;;0.40;0.30;;;23.70;99.90;;;;;;5038623;28;20395;-69
2022/08/15 09:23:45;;;;;;;0.40;0.30;;;23.70;99.90;;;;;;5043175;28;20422;-69
2022/08/15 09:26:33;;;;;;;1.40;1.10;;;23.70;99.90;;;;;;5041717;28;20412;-70
2022/08/15 09:29:28;;;;;;;0.40;0.30;;;23.90;99.90;;;;;;5037563;28;20770;-71
2022/08/15 09:32:30;;;;;;;0.40;0.30;;;24.20;99.90;;;;;;5034696;28;20416;-70
2022/08/15 09:35:12;;;;;;;0.40;0.30;;;24.00;99.90;;;;;;5038828;28;20512;-71
2022/08/15 09:38:01;;;;;;;0.40;0.30;;;24.00;99.90;;;;;;5045386;28;20393;-70
2022/08/15 09:40:41;;;;;;;0.50;0.50;;;24.30;99.90;;;;;;5043362;28;20476;-70
2022/08/15 09:43:30;;;;;;;0.40;0.30;;;24.10;99.90;;;;;;5035655;28;20923;-72
2022/08/15 09:46:24;;;;;;;0.40;0.30;;;24.30;99.90;;;;;;5036522;28;20657;-70
2022/08/15 09:48:56;;;;;;;0.40;0.30;;;24.30;99.80;;;;;;5040713;28;20405;-72
2022/08/15 09:51:43;;;;;;;0.40;0.30;;;24.30;99.90;;;;;;5049175;28;20431;-72
2022/08/15 09:54:23;;;;;;;0.40;0.20;;;24.30;99.90;;;;;;5031751;28;20401;-72
2022/08/15 09:57:10;;;;;;;0.50;0.43;;;24.30;99.90;;;;;;5040170;28;20551;-71
2022/08/15 09:59:37;;;;;;;0.40;0.20;;;24.40;99.90;;;;;;5040820;28;20405;-72
2022/08/15 10:02:26;;;;;;;0.40;0.30;;;24.50;99.80;;;;;;5040264;28;20407;-70
2022/08/15 10:04:57;;;;;;;0.40;0.30;;;24.50;99.40;;;;;;5033270;28;20420;-72
2022/08/15 10:07:54;;;;;;;0.40;0.30;;;24.50;98.70;;;;;;5047071;28;20388;-72
2022/08/15 10:10:32;;;;;;;0.40;0.30;;;24.60;97.20;;;;;;5026310;28;20421;-72
2022/08/15 10:13:07;;;;;;;0.40;0.22;;;24.60;98.40;;;;;;5027623;28;20492;-72
2022/08/15 10:15:43;;;;;;;0.40;0.30;;;24.70;97.90;;;;;;5049479;28;20476;-73
2022/08/15 10:18:27;;;;;;;0.40;0.30;;;24.60;96.30;;;;;;5050740;28;20852;-72
2022/08/15 10:21:19;;;;;;;0.40;0.30;;;25.00;94.60;;;;;;5051415;28;20400;-71
2022/08/15 10:23:50;;;;;;;1.00;0.70;;;25.00;94.10;;;;;;5044780;28;20395;-72
2022/08/15 10:26:18;;;;;;;1.90;1.20;;;25.10;93.50;;;;;;5048460;28;20483;-71
2022/08/15 10:29:07;;;;;;;0.40;0.30;;;25.00;93.50;;;;;;5050081;28;20952;-71
2022/08/15 10:31:49;;;;;;;0.50;0.40;;;25.10;90.80;;;;;;5043152;28;20891;-72
2022/08/15 10:34:32;;;;;;;0.40;0.30;;;25.20;90.90;;;;;;5045581;28;20498;-72
2022/08/15 10:37:51;;;;;;;0.40;0.30;;;25.20;91.10;;;;;;5050393;28;20902;-71
2022/08/15 10:40:39;;;;;;;0.40;0.30;;;25.50;90.70;;;;;;5046438;28;20420;-72
2022/08/15 10:43:07;;;;;;;0.40;0.20;;;25.50;89.20;;;;;;5049827;28;20448;-73
2022/08/15 10:45:41;;;;;;;0.40;0.20;;;25.50;89.30;;;;;;5030323;28;20416;-70
2022/08/15 10:48:52;;;;;;;0.40;0.30;;;25.70;87.40;;;;;;5046569;28;20775;-72
2022/08/15 10:51:26;;;;;;;0.40;0.30;;;25.70;88.50;;;;;;5020116;28;20409;-73
2022/08/15 10:54:33;;;;;;;0.50;0.50;;;25.80;88.00;;;;;;5038721;28;20393;-71
2022/08/15 10:56:59;;;;;;;0.50;0.40;;;25.80;90.80;;;;;;5023766;28;20402;-72
2022/08/15 10:59:33;;;;;;;0.50;0.38;;;25.90;86.00;;;;;;5051753;28;20975;-73
2022/08/15 11:02:33;;;;;;;0.40;0.20;;;26.10;84.50;;;;;;5052481;28;20431;-72
2022/08/15 11:05:02;;;;;;;0.40;0.20;;;26.30;83.70;;;;;;5048753;28;20417;-72
2022/08/15 11:07:27;;;;;;;0.40;0.30;;;26.50;79.40;;;;;;5032433;28;20379;-73
2022/08/15 11:09:56;;;;;;;0.40;0.30;;;26.30;78.30;;;;;;5038810;28;20442;-73
2022/08/15 11:12:23;;;;;;;0.40;0.30;;;26.10;76.50;;;;;;5046518;28;20457;-72
2022/08/15 11:14:59;;;;;;;0.40;0.20;;;26.10;78.90;;;;;;5045823;28;20421;-71
2022/08/15 11:17:28;;;;;;;0.40;0.20;;;26.10;79.20;;;;;;5057917;28;20424;-70
2022/08/15 11:20:04;;;;;;;0.40;0.20;;;26.20;79.20;;;;;;5055970;28;20386;-72
2022/08/15 11:22:46;;;;;;;0.40;0.40;;;26.10;78.20;;;;;;5064886;28;20423;-71
2022/08/15 11:25:17;;;;;;;0.40;0.20;;;25.90;79.70;;;;;;5050667;28;20415;-72
2022/08/15 11:27:46;;;;;;;0.60;0.60;;;25.90;79.70;;;;;;5055141;28;20430;-71
2022/08/15 11:30:24;;;;;;;0.40;0.20;;;26.00;78.60;;;;;;5051868;28;20385;-72
2022/08/15 11:32:50;;;;;;;0.50;0.40;;;26.00;79.20;;;;;;5051417;28;20396;-72
2022/08/15 11:35:29;;;;;;;0.40;0.30;;;26.20;78.70;;;;;;5049376;28;20449;-72
2022/08/15 11:37:58;;;;;;;0.40;0.30;;;25.90;80.50;;;;;;5041080;28;20439;-71
2022/08/15 11:40:31;;;;;;;0.40;0.30;;;26.00;80.10;;;;;;5045386;28;20454;-72
2022/08/15 11:43:01;;;;;;;0.50;0.50;;;25.80;79.30;;;;;;5047151;28;20474;-73
2022/08/15 11:45:30;;;;;;;0.50;0.40;;;25.90;79.70;;;;;;5043325;28;20748;-73
2022/08/15 11:47:58;;;;;;;0.40;0.30;;;25.70;80.20;;;;;;5046151;28;20998;-72
2022/08/15 11:50:28;;;;;;;0.50;0.50;;;26.00;80.90;;;;;;5052133;28;20447;-72
2022/08/15 11:52:58;;;;;;;0.40;0.20;;;26.30;79.60;;;;;;5050449;28;20373;-74
2022/08/15 11:55:29;;;;;;;0.40;0.20;;;26.40;77.90;;;;;;5051377;28;20460;-73
2022/08/15 11:58:17;;;;;;;0.40;0.20;;;26.60;77.60;;;;;;5049010;28;20382;-73
2022/08/15 12:00:51;;;;;;;0.40;0.30;;;26.50;79.00;;;;;;5047756;28;20780;-71
2022/08/15 12:03:23;;;;;;;0.40;0.20;;;26.40;79.30;;;;;;5051309;28;20381;-72
2022/08/15 12:05:53;;;;;;;0.50;0.40;;;26.10;80.20;;;;;;5051223;28;20424;-73
2022/08/15 12:08:28;;;;;;;0.40;0.30;;;25.70;81.70;;;;;;5050149;28;20827;-73
2022/08/15 12:11:14;;;;;;;0.40;0.30;;;25.20;84.90;;;;;;5050916;28;20395;-73
2022/08/15 12:13:52;;;;;;;0.40;0.30;;;24.00;87.80;;;;;;5050148;28;20392;-72
2022/08/15 12:16:34;;;;;;;1.40;0.70;;;23.10;90.90;;;;;;5048739;28;20397;-72
2022/08/15 12:19:29;;;;;;;0.40;0.20;;;21.90;99.90;;;;;;5051996;28;20453;-72
2022/08/15 12:22:01;;;;;;;1.25;0.60;;;20.60;99.90;;;;;;5050359;28;20389;-74
2022/08/15 12:24:31;;;;;;;0.40;0.30;;;19.70;99.90;;;;;;5051077;28;20393;-72
2022/08/15 12:27:01;;;;;;;0.40;0.30;;;19.20;99.90;;;;;;5049895;28;20412;-70
2022/08/15 12:29:28;;;;;;;0.40;0.30;;;19.00;99.90;;;;;;5051292;28;20385;-73
2022/08/15 12:31:56;;;;;;;0.40;0.20;;;18.80;99.90;;;;;;5050981;28;20385;-73
2022/08/15 12:34:33;;;;;;;0.40;0.30;;;18.70;99.90;;;;;;5051236;28;20482;-72
2022/08/15 12:37:07;;;;;;;0.40;0.30;;;18.70;99.90;;;;;;5050349;28;20381;-70
2022/08/15 12:39:44;;;;;;;0.40;0.30;;;18.80;99.90;;;;;;5043735;28;20389;-73
2022/08/15 12:42:15;;;;;;;0.40;0.20;;;18.80;99.90;;;;;;5050559;28;20386;-72
2022/08/15 12:44:44;;;;;;;0.40;0.20;;;19.00;99.90;;;;;;5037057;28;20407;-74
2022/08/15 12:47:09;;;;;;;0.40;0.20;;;19.00;99.90;;;;;;5042672;28;20422;-73
2022/08/15 12:49:35;;;;;;;0.40;0.30;;;19.00;99.90;;;;;;5043243;28;20452;-73
2022/08/15 12:52:00;;;;;;;0.40;0.30;;;18.90;99.90;;;;;;5056522;28;20385;-71
2022/08/15 12:54:26;;;;;;;0.90;0.40;;;18.30;99.90;;;;;;5052013;28;20413;-74
2022/08/15 12:56:52;;;;;;;0.40;0.30;;;18.00;99.90;;;;;;5071844;28;20757;-74
2022/08/15 12:59:17;;;;;;;0.47;0.30;;;17.90;99.90;;;;;;5052525;28;20404;-74
2022/08/15 13:01:45;;;;;;;0.40;0.30;;;17.80;99.90;;;;;;5051930;28;20476;-74
2022/08/15 13:04:13;;;;;;;0.40;0.30;;;17.80;99.90;;;;;;5032936;28;20416;-71
2022/08/15 13:06:45;;;;;;;0.40;0.20;;;17.80;99.90;;;;;;5037572;28;20492;-74
2022/08/15 13:09:12;;;;;;;0.40;0.30;;;17.70;99.90;;;;;;5041630;28;20986;-73
2022/08/15 13:11:40;;;;;;;0.40;0.30;;;17.90;99.90;;;;;;5062014;28;20490;-73
2022/08/15 13:14:07;;;;;;;0.40;0.20;;;17.80;99.90;;;;;;5050089;28;20417;-74
2022/08/15 13:16:33;;;;;;;0.40;0.30;;;17.80;99.90;;;;;;5045095;28;20401;-71
2022/08/15 13:19:04;;;;;;;0.40;0.30;;;17.80;99.90;;;;;;5044809;28;20887;-74
2022/08/15 13:24:14;;;;;;;0.40;0.22;;;17.80;99.90;;;;;;5045965;28;20482;-73
2022/08/15 13:26:44;;;;;;;0.40;0.20;;;17.90;99.90;;;;;;5041510;28;20413;-73
2022/08/15 13:29:12;;;;;;;0.40;0.30;;;17.90;99.90;;;;;;5039475;28;20415;-73